Flight Track Log - Related Links

Times and Time Zones

All times are in EDT time to prevent confusion due to time zone crossing. See the N99PN flight status page for this flight to view local times or setup timezone preferences in your user account.

Time Position Orientation Groundspeed Altitude Reporting Facility
EDT Latitude Longitude Course Direction KTS MPH feet Rate Location/Type
Thu 05:22:54 PM 27.4542 -80.3653 191° South 99 114 1,900  Level Miami Center
Thu 05:23:55 PM 27.4364 -80.3842 223° Southwest 112 129 3,100 1,122 Climbing Miami Center
Thu 05:24:57 PM 27.4644 -80.4197 312° West 145 167 4,200 968 Climbing Miami Center
Thu 05:25:59 PM 27.4989 -80.4486 323° Northwest 162 186 5,100 435 Climbing Miami Center
Thu 05:26:00 PM 27.6670 -80.4837 318° Northwest  Level FlightAware Approximate
Thu 05:27:00 PM 27.6939 -80.5211 299° West  Level FlightAware Approximate
Thu 05:27:01 PM 27.5517 -80.4483 360° North 181 208 5,100  Level Miami Center
Thu 05:28:03 PM 27.6036 -80.4656 344° North 182 209 5,100 -48 Level Miami Center
Thu 05:29:05 PM 27.6497 -80.4847 340° North 183 211 5,000  Descending Miami Center
Thu 05:30:06 PM 27.6992 -80.5008 344° North 181 208 5,100  Climbing Miami Center
Thu 05:31:08 PM 27.7500 -80.5167 345° North 181 208 5,000 -48 Descending Miami Center
Thu 05:32:10 PM 27.8031 -80.5344 343° North 189 217 5,000  Level Miami Center
Thu 05:33:12 PM 27.8575 -80.5489 347° North 190 219 5,000 48 Level Miami Center
Thu 05:34:14 PM 27.9061 -80.5669 342° North 190 219 5,100 -97 Climbing Miami Center
Thu 05:35:16 PM 27.9492 -80.6017 325° Northwest 185 213 4,800 -341 Descending Miami Center
Thu 05:36:17 PM 27.9903 -80.6444 317° Northwest 190 219 4,400 -375 Descending Miami Center
Thu 05:37:24 PM 28.0333 -80.6833 321° Northwest 194 223 4,000 -142 Descending Orlando TRACON
Thu 05:38:24 PM 28.0833 -80.7167 330° Northwest 180 207 4,100 50 Climbing Orlando TRACON
Thu 05:39:24 PM 28.1167 -80.7667 307° West 176 203 4,100 -50 Level Orlando TRACON
Thu 05:40:24 PM 28.1500 -80.8000 319° Northwest 184 212 4,000  Descending Orlando TRACON
Thu 05:41:24 PM 28.1667 -80.8500 291° West 174 200 4,100 50 Climbing Orlando TRACON
Thu 05:42:24 PM 28.2000 -80.9000 307° West 172 198 4,100 -283 Level Orlando TRACON
Thu 05:43:31 PM 28.2394 -80.9353 322° Northwest 201 231 3,500 -469 Descending Miami Center
Thu 05:44:32 PM 28.2831 -80.9706 325° Northwest 195 224 3,100 -244 Descending Miami Center
Thu 05:45:34 PM 28.3258 -80.9983 330° Northwest 181 208 3,000 -242 Descending Miami Center
Thu 05:46:36 PM 28.3697 -81.0258 331° Northwest 181 208 2,600 -466 Descending Miami Center
Thu 05:47:30 PM 28.4167 -81.0667 323° Northwest 185 213 2,100 -316 Descending Orlando TRACON
Thu 05:48:30 PM 28.4500 -81.1000 319° Northwest 178 205 2,000 -200 Descending Orlando TRACON
Thu 05:49:30 PM 28.4833 -81.1333 319° Northwest 169 194 1,700 -150 Descending Orlando TRACON
Thu 05:50:30 PM 28.5333 -81.1500 344° North 159 183 1,700 -53 Level Orlando TRACON
Thu 05:51:24 PM 28.5667 -81.1833 319° Northwest 156 180 1,600 -158 Descending Orlando TRACON
Thu 05:52:24 PM 28.5833 -81.2167 300° West 126 145 1,400 -333 Descending Orlando TRACON
Thu 05:53:30 PM 28.5667 -81.2667 249° West 120 138 900 -381 Descending Orlando TRACON
Thu 05:54:30 PM 28.5667 -81.3000 270° West 112 129 600 -300 Descending Orlando TRACON
Thu 05:56:00 PM 28.5455 -81.3329 204° Southwest  Level Estimated
Thu 06:03:00 PM 28.5455 -81.3329 300° West  Level Estimated
Thu 06:04:00 PM 28.5455 -81.3329 130° Southeast  Level Estimated

Login

Don't have an account? Register now (free) for customized features, flight alerts, and more!